CheckWX is a tool to help pilots better visualize weather data.  It is not intended as a substitute for an official pre-flight weather briefing.

13:15:13 UTC

LIRA TAF
Ciampino–G. B. Pastine International Airport
Roma, Italy
TAF LIRA 021700Z 0218/0318 VRB05KT CAVOK TEMPO 0302/0305 4000 BR BECMG 0310/0312 24010KT TEMPO 0313/0316 SHRA

Jul-2@
18:00 UTC

Jul-2 @ 18:00 UTC

Jul-3@
10:00 UTC

Jul-3 @ 10:00 UTC

TAF LIRA 021700Z 0218/0318 VRB05KT CAVOK

Expired

Wind
  • Variable at 5 KTS
Conditions
No significant weather
Cloud Levels
  • No significant clouds

Jul-3@
02:00 UTC

Jul-3 @ 02:00 UTC

Jul-3@
05:00 UTC

Jul-3 @ 05:00 UTC

TEMPO 0302/0305 4000 BR

Expired

Conditions
Mist
Cloud Levels

Jul-3@
10:00 UTC

Jul-3 @ 10:00 UTC

Jul-3@
18:00 UTC

Jul-3 @ 18:00 UTC

BECMG 0310/0312 24010KT

Becoming

Becoming Conditions expected by Fri, Jul 3, 2020 @ 12:00 UTC

Wind
  • 240° at 10 KTS
Conditions
No significant weather
Cloud Levels
  • No significant clouds

Jul-3@
13:00 UTC

Jul-3 @ 13:00 UTC

Jul-3@
16:00 UTC

Jul-3 @ 16:00 UTC

TEMPO 0313/0316 SHRA

Temporary

Temporary Changes expected for less than half the time period

Conditions
Showers, Rain
Cloud Levels